Time;durP1;ratioP1;P1;durP2;ratioP2;P2;SDS_P1;SDS_P2;PMS_P1;PMS_P2;Temp;Humidity;BMP_temperature;BMP_pressure;BME280_temperature;BME280_humidity;BME280_pressure;Samples;Min_cycle;Max_cycle;Signal;HPM_P1;HPM_P2
2023/08/20 00:01:54;;;;;;;9.68;4.43;;;;;;;21.05;100.00;96353.28;5109172;28;20494;-70
2023/08/20 00:04:22;;;;;;;7.22;4.70;;;;;;;21.02;100.00;96365.22;5096516;28;20476;-69
2023/08/20 00:06:47;;;;;;;15.38;4.93;;;;;;;20.98;100.00;96366.59;5095405;28;20140;-70
2023/08/20 00:09:13;;;;;;;11.90;4.55;;;;;;;20.99;100.00;96360.22;5077756;28;20051;-70
2023/08/20 00:11:38;;;;;;;9.35;4.40;;;;;;;21.03;100.00;96355.34;5096595;28;20088;-69
2023/08/20 00:14:04;;;;;;;11.70;4.57;;;;;;;20.99;100.00;96357.56;5098919;28;20028;-70
2023/08/20 00:16:29;;;;;;;6.30;3.85;;;;;;;20.93;100.00;96386.97;5096030;28;20067;-70
2023/08/20 00:18:55;;;;;;;11.40;4.22;;;;;;;20.89;100.00;96368.59;5095847;28;20463;-70
2023/08/20 00:21:21;;;;;;;13.32;4.55;;;;;;;20.87;100.00;96367.13;5095595;28;20998;-70
2023/08/20 00:23:46;;;;;;;8.35;5.05;;;;;;;20.83;100.00;96372.03;5095485;28;20016;-70
2023/08/20 00:26:12;;;;;;;13.23;3.88;;;;;;;20.82;100.00;96356.19;5097132;27;20112;-69
2023/08/20 00:28:38;;;;;;;9.18;4.93;;;;;;;20.75;100.00;96369.44;5093579;28;20040;-70
2023/08/20 00:31:04;;;;;;;8.73;4.45;;;;;;;20.74;100.00;96371.28;5109066;28;20023;-69
2023/08/20 00:33:30;;;;;;;8.32;3.85;;;;;;;20.74;100.00;96365.94;5105799;28;20563;-69
2023/08/20 00:35:56;;;;;;;8.00;4.35;;;;;;;20.72;100.00;96361.81;5094072;28;20107;-69
2023/08/20 00:38:21;;;;;;;7.85;3.92;;;;;;;20.72;100.00;96359.94;5095495;28;20051;-69
2023/08/20 00:40:47;;;;;;;10.82;4.63;;;;;;;20.75;100.00;96367.59;5095302;28;20575;-69
2023/08/20 00:43:12;;;;;;;7.72;3.97;;;;;;;20.72;100.00;96365.28;5095276;28;20023;-69
2023/08/20 00:45:38;;;;;;;9.80;4.00;;;;;;;20.70;100.00;96361.97;5095129;28;20016;-69
2023/08/20 00:48:05;;;;;;;12.98;4.32;;;;;;;20.63;100.00;96365.59;5095630;28;20028;-69
2023/08/20 00:50:30;;;;;;;9.18;4.30;;;;;;;20.62;100.00;96370.13;5106837;27;20034;-70
2023/08/20 00:52:56;;;;;;;10.43;4.78;;;;;;;20.56;100.00;96371.72;5093746;28;20028;-70
2023/08/20 00:55:21;;;;;;;11.05;4.07;;;;;;;20.58;100.00;96369.69;5107694;28;20035;-69
2023/08/20 00:57:47;;;;;;;11.77;4.05;;;;;;;20.57;100.00;96384.06;5099945;28;20024;-70
2023/08/20 01:00:12;;;;;;;11.07;4.53;;;;;;;20.50;100.00;96391.19;5106714;28;20031;-69
2023/08/20 01:02:40;;;;;;;8.95;4.70;;;;;;;20.43;100.00;96391.09;5095031;28;20031;-69
2023/08/20 01:05:07;;;;;;;10.25;4.43;;;;;;;20.39;100.00;96395.19;5095536;28;20462;-69
2023/08/20 01:07:42;;;;;;;9.82;4.18;;;;;;;20.43;100.00;96382.25;5114821;28;20079;-69
2023/08/20 01:10:19;;;;;;;9.20;4.53;;;;;;;20.39;100.00;96397.84;5113351;28;20099;-69
2023/08/20 01:12:46;;;;;;;8.85;4.00;;;;;;;20.31;100.00;96412.16;5098652;28;20418;-70
2023/08/20 01:15:13;;;;;;;8.82;4.30;;;;;;;20.26;100.00;96400.34;5107218;28;20023;-70
2023/08/20 01:17:43;;;;;;;9.45;4.53;;;;;;;20.21;100.00;96397.41;5092847;28;20114;-69
2023/08/20 01:20:11;;;;;;;9.15;4.22;;;;;;;20.20;100.00;96407.25;5092795;28;20799;-70
2023/08/20 01:22:48;;;;;;;7.75;4.70;;;;;;;20.21;100.00;96411.59;5094835;28;20035;-70
2023/08/20 01:25:26;;;;;;;8.02;4.53;;;;;;;20.22;100.00;96407.09;5094515;28;20016;-69
2023/08/20 01:28:27;;;;;;;9.30;4.03;;;;;;;20.21;100.00;96395.56;5106564;27;20073;-70
2023/08/20 01:30:57;;;;;;;11.75;4.88;;;;;;;20.19;100.00;96402.94;5092670;28;20790;-70
2023/08/20 01:33:24;;;;;;;11.98;4.63;;;;;;;20.14;100.00;96400.00;5093160;28;20507;-70
2023/08/20 01:35:50;;;;;;;10.90;4.88;;;;;;;20.10;100.00;96396.03;5094386;28;20050;-70
2023/08/20 01:38:15;;;;;;;7.88;4.03;;;;;;;20.09;100.00;96410.41;5094124;28;20017;-70
2023/08/20 01:40:41;;;;;;;11.88;5.10;;;;;;;20.03;100.00;96403.94;5106633;28;20035;-70
2023/08/20 01:43:07;;;;;;;10.07;4.57;;;;;;;19.97;100.00;96421.53;5093377;28;20495;-70
2023/08/20 01:45:32;;;;;;;6.55;4.05;;;;;;;19.99;100.00;96403.47;5095133;28;20504;-70
2023/08/20 01:47:58;;;;;;;9.40;4.72;;;;;;;19.98;100.00;96414.38;5106084;28;20020;-70
2023/08/20 01:50:23;;;;;;;8.73;4.15;;;;;;;19.95;100.00;96406.72;5108005;28;20023;-70
2023/08/20 01:52:48;;;;;;;9.23;4.70;;;;;;;19.90;100.00;96402.75;5095792;28;20024;-70
2023/08/20 01:55:14;;;;;;;10.05;4.75;;;;;;;19.88;100.00;96398.56;5105246;28;20110;-70
2023/08/20 01:57:39;;;;;;;7.55;4.32;;;;;;;19.88;100.00;96396.72;5100717;28;20478;-70
2023/08/20 02:00:06;;;;;;;10.02;4.32;;;;;;;19.89;100.00;96390.41;5100853;28;20024;-70
2023/08/20 02:02:32;;;;;;;9.80;5.43;;;;;;;19.94;100.00;96389.03;5106737;28;20023;-72
2023/08/20 02:04:58;;;;;;;6.13;4.40;;;;;;;19.89;100.00;96397.56;5107034;28;20042;-72
2023/08/20 02:07:23;;;;;;;8.18;5.03;;;;;;;19.86;100.00;96403.28;5098250;28;20072;-72
2023/08/20 02:09:49;;;;;;;8.30;4.72;;;;;;;19.87;100.00;96396.91;5110398;28;20825;-72
2023/08/20 02:12:14;;;;;;;10.10;4.47;;;;;;;19.90;100.00;96399.22;5112691;28;20073;-70
2023/08/20 02:14:40;;;;;;;9.30;4.38;;;;;;;19.88;100.00;96398.56;5099783;28;20032;-70
2023/08/20 02:17:06;;;;;;;8.68;3.80;;;;;;;19.83;100.00;96409.81;5086745;28;20601;-70
2023/08/20 02:19:31;;;;;;;6.53;4.43;;;;;;;19.79;100.00;96435.22;5094326;28;20107;-70
2023/08/20 02:21:57;;;;;;;11.23;4.40;;;;;;;19.74;100.00;96432.28;5094040;28;20523;-69
2023/08/20 02:24:22;;;;;;;9.85;4.68;;;;;;;19.66;100.00;96418.97;5098003;28;20077;-70
2023/08/20 02:26:48;;;;;;;9.05;4.35;;;;;;;19.63;100.00;96414.00;5109322;28;20557;-72
2023/08/20 02:29:13;;;;;;;7.80;4.93;;;;;;;19.62;100.00;96434.56;5097634;28;20135;-72
2023/08/20 02:31:38;;;;;;;8.43;4.45;;;;;;;19.63;100.00;96438.03;5096733;28;20042;-69
2023/08/20 02:34:04;;;;;;;10.45;4.43;;;;;;;19.59;100.00;96437.59;5097958;27;20023;-72
2023/08/20 02:36:29;;;;;;;7.60;4.55;;;;;;;19.55;100.00;96438.94;5097953;28;20102;-69
2023/08/20 02:38:55;;;;;;;8.35;4.78;;;;;;;19.55;100.00;96425.59;5097749;28;20059;-69
2023/08/20 02:41:20;;;;;;;7.03;4.70;;;;;;;19.51;100.00;96427.81;5099656;28;20582;-72
2023/08/20 02:43:49;;;;;;;9.38;4.65;;;;;;;19.49;100.00;96439.69;5110168;28;20032;-72
2023/08/20 02:46:14;;;;;;;9.20;4.97;;;;;;;19.41;100.00;96438.75;5097378;28;20023;-71
2023/08/20 02:48:40;;;;;;;10.32;4.57;;;;;;;19.42;100.00;96442.22;5096073;28;20035;-72
2023/08/20 02:51:05;;;;;;;7.88;4.20;;;;;;;19.37;100.00;96442.78;5112741;28;20019;-72
2023/08/20 02:53:31;;;;;;;8.38;4.20;;;;;;;19.33;100.00;96438.78;5106447;28;20061;-72
2023/08/20 02:55:56;;;;;;;8.93;4.75;;;;;;;19.31;100.00;96436.31;5095665;28;20515;-69
2023/08/20 02:58:22;;;;;;;11.57;4.50;;;;;;;19.30;100.00;96436.47;5070145;28;20539;-71
2023/08/20 03:00:47;;;;;;;10.30;4.40;;;;;;;19.26;100.00;96445.88;5101815;28;20029;-72
2023/08/20 03:03:13;;;;;;;14.48;4.55;;;;;;;19.23;100.00;96443.56;5117162;28;20028;-69
2023/08/20 03:05:39;;;;;;;9.77;4.78;;;;;;;19.21;100.00;96437.56;5099141;28;20040;-72
2023/08/20 03:08:04;;;;;;;11.70;4.43;;;;;;;19.20;100.00;96442.06;5097351;28;20027;-72
2023/08/20 03:10:31;;;;;;;13.32;4.82;;;;;;;19.16;100.00;96449.59;5100368;28;20024;-70
2023/08/20 03:12:58;;;;;;;8.77;4.20;;;;;;;19.14;100.00;96448.97;5097263;28;20485;-69
2023/08/20 03:15:23;;;;;;;10.98;4.55;;;;;;;19.14;100.00;96456.97;5095149;28;20705;-70
2023/08/20 03:17:48;;;;;;;7.43;4.63;;;;;;;19.14;100.00;96448.97;5116367;28;20038;-70
2023/08/20 03:20:14;;;;;;;5.65;4.07;;;;;;;19.14;100.00;96453.44;5116358;28;20028;-70
2023/08/20 03:22:39;;;;;;;10.27;5.15;;;;;;;19.14;100.00;96464.97;5078752;28;20052;-70
2023/08/20 03:25:05;;;;;;;9.35;5.18;;;;;;;19.12;100.00;96458.97;5095077;28;20063;-70
2023/08/20 03:27:31;;;;;;;7.82;4.20;;;;;;;19.05;100.00;96463.34;5117210;27;20507;-71
2023/08/20 03:29:56;;;;;;;12.85;5.03;;;;;;;19.02;100.00;96466.38;5095270;28;20048;-70
2023/08/20 03:32:23;;;;;;;7.25;4.70;;;;;;;19.04;100.00;96454.53;5100007;27;20016;-70
2023/08/20 03:34:48;;;;;;;10.57;4.88;;;;;;;19.02;100.00;96461.88;5108877;27;20784;-70
2023/08/20 03:37:13;;;;;;;7.57;4.75;;;;;;;19.00;100.00;96465.72;5095217;28;20047;-69
2023/08/20 03:39:39;;;;;;;7.65;4.47;;;;;;;19.00;100.00;96455.88;5098375;28;20434;-70
2023/08/20 03:42:04;;;;;;;5.63;4.30;;;;;;;19.03;100.00;96446.69;5097464;28;20507;-70
2023/08/20 03:44:31;;;;;;;9.50;4.63;;;;;;;19.02;100.00;96445.03;5096881;28;20020;-70
2023/08/20 03:46:56;;;;;;;9.55;4.80;;;;;;;19.05;100.00;96442.00;5098926;28;20024;-70
2023/08/20 03:49:22;;;;;;;11.32;4.28;;;;;;;19.00;100.00;96447.03;5102230;27;20031;-70
2023/08/20 03:51:47;;;;;;;10.57;4.28;;;;;;;18.96;100.00;96453.72;5095093;28;20024;-70
2023/08/20 03:54:13;;;;;;;11.45;5.20;;;;;;;18.93;100.00;96460.22;5111472;28;20028;-70
2023/08/20 03:56:38;;;;;;;7.30;4.78;;;;;;;18.89;100.00;96456.25;5106131;28;20097;-70
2023/08/20 03:59:04;;;;;;;11.40;4.53;;;;;;;18.85;100.00;96455.75;5113195;28;20024;-70
2023/08/20 04:01:29;;;;;;;9.13;4.88;;;;;;;18.81;100.00;96461.63;5097807;28;20043;-70
2023/08/20 04:03:55;;;;;;;9.95;4.40;;;;;;;18.79;100.00;96485.81;5116151;28;20034;-70
2023/08/20 04:06:20;;;;;;;8.52;4.90;;;;;;;18.79;100.00;96476.97;5104454;28;20030;-70
2023/08/20 04:08:45;;;;;;;9.48;4.90;;;;;;;18.80;100.00;96474.13;5095587;28;20035;-70
2023/08/20 04:11:11;;;;;;;9.35;5.20;;;;;;;18.80;100.00;96475.97;5098521;28;20063;-70
2023/08/20 04:13:37;;;;;;;11.73;5.00;;;;;;;18.74;100.00;96477.50;5094457;28;20024;-70
2023/08/20 04:16:02;;;;;;;14.48;5.75;;;;;;;18.68;100.00;96475.50;5100287;28;20153;-70
2023/08/20 04:18:27;;;;;;;10.15;4.88;;;;;;;18.68;100.00;96475.50;5116224;28;20051;-70
2023/08/20 04:20:54;;;;;;;8.48;4.55;;;;;;;18.63;100.00;96476.06;5102034;28;20028;-70
2023/08/20 04:23:20;;;;;;;12.95;5.20;;;;;;;18.60;100.00;96485.22;5116167;28;20027;-69
2023/08/20 04:25:45;;;;;;;11.90;5.45;;;;;;;18.55;100.00;96492.91;5104512;27;20039;-69
2023/08/20 04:28:12;;;;;;;9.10;5.63;;;;;;;18.46;100.00;96489.44;5095227;28;20039;-69
2023/08/20 04:30:37;;;;;;;10.95;4.75;;;;;;;18.40;100.00;96495.47;5100805;28;20126;-70
2023/08/20 04:33:03;;;;;;;11.57;4.65;;;;;;;18.43;100.00;96488.94;5101813;28;20115;-69
2023/08/20 04:35:28;;;;;;;9.30;4.53;;;;;;;18.43;100.00;96495.13;5107043;28;20043;-70
2023/08/20 04:37:54;;;;;;;10.55;5.35;;;;;;;18.43;100.00;96500.47;5095428;28;20099;-70
2023/08/20 04:40:19;;;;;;;8.95;5.32;;;;;;;18.39;100.00;96499.16;5099073;28;20026;-70
2023/08/20 04:42:45;;;;;;;8.02;4.20;;;;;;;18.36;100.00;96501.31;5107819;28;20027;-70
2023/08/20 04:45:11;;;;;;;9.98;5.13;;;;;;;18.33;100.00;96507.81;5095156;28;20024;-69
2023/08/20 04:47:37;;;;;;;9.57;4.82;;;;;;;18.37;100.00;96511.81;5107916;28;20426;-70
2023/08/20 04:50:03;;;;;;;9.52;5.10;;;;;;;18.40;100.00;96511.47;5100691;27;20020;-70
2023/08/20 04:52:28;;;;;;;10.50;5.10;;;;;;;18.39;100.00;96511.63;5103877;28;20027;-70
2023/08/20 04:54:53;;;;;;;10.23;5.00;;;;;;;18.33;100.00;96518.47;5094114;28;20024;-70
2023/08/20 04:57:19;;;;;;;10.30;4.72;;;;;;;18.31;100.00;96515.13;5105476;28;20059;-70
2023/08/20 04:59:45;;;;;;;8.75;5.28;;;;;;;18.32;100.00;96511.47;5104962;28;20031;-70
2023/08/20 05:02:13;;;;;;;13.60;6.63;;;;;;;18.39;100.00;96515.13;5094855;28;20024;-70
2023/08/20 05:04:39;;;;;;;10.93;7.13;;;;;;;18.40;100.00;96510.63;5094735;28;20020;-69
2023/08/20 05:07:05;;;;;;;10.43;7.97;;;;;;;18.37;100.00;96508.31;5093292;28;20494;-69
2023/08/20 05:09:30;;;;;;;12.15;5.30;;;;;;;18.35;100.00;96513.81;5098340;28;20020;-70
2023/08/20 05:11:56;;;;;;;16.13;5.90;;;;;;;18.38;100.00;96516.13;5094200;28;20392;-70
2023/08/20 05:14:21;;;;;;;9.43;5.55;;;;;;;18.40;100.00;96524.78;5095050;28;20028;-70
2023/08/20 05:16:47;;;;;;;13.80;4.88;;;;;;;18.36;100.00;96530.63;5104457;28;20854;-70
2023/08/20 05:19:12;;;;;;;13.88;5.90;;;;;;;18.39;100.00;96524.94;5100150;28;20100;-70
2023/08/20 05:21:37;;;;;;;12.48;5.60;;;;;;;18.41;100.00;96521.13;5103485;28;20028;-69
2023/08/20 05:24:03;;;;;;;11.88;5.07;;;;;;;18.43;100.00;96524.44;5104263;28;20084;-70
2023/08/20 05:26:29;;;;;;;13.52;5.10;;;;;;;18.45;100.00;96522.44;5111220;27;20030;-70
2023/08/20 05:28:54;;;;;;;16.40;5.85;;;;;;;18.47;100.00;96519.63;5107707;27;20099;-70
2023/08/20 05:31:19;;;;;;;12.48;5.30;;;;;;;18.53;100.00;96526.91;5095214;28;20044;-70
2023/08/20 05:33:45;;;;;;;7.10;4.57;;;;;;;18.55;100.00;96522.25;5112570;27;20008;-70
2023/08/20 05:36:10;;;;;;;10.07;5.18;;;;;;;18.63;100.00;96516.06;5093195;28;20031;-70
2023/08/20 05:38:36;;;;;;;14.57;6.07;;;;;;;18.63;100.00;96517.88;5097442;28;20077;-70
2023/08/20 05:41:01;;;;;;;13.43;5.43;;;;;;;18.64;100.00;96532.88;5086292;28;20575;-70
2023/08/20 05:43:26;;;;;;;13.38;5.82;;;;;;;18.66;100.00;96533.53;5109882;28;20016;-70
2023/08/20 05:45:52;;;;;;;8.52;5.43;;;;;;;18.66;100.00;96546.88;5092886;28;20020;-70
2023/08/20 05:48:17;;;;;;;10.35;5.50;;;;;;;18.69;100.00;96535.88;5094060;28;20016;-70
2023/08/20 05:50:43;;;;;;;10.90;5.53;;;;;;;18.71;100.00;96534.69;5101047;27;20047;-70
2023/08/20 05:53:08;;;;;;;9.93;4.88;;;;;;;18.72;100.00;96536.34;5103662;28;20030;-70
2023/08/20 05:55:34;;;;;;;8.45;5.22;;;;;;;18.71;100.00;96541.88;5095077;28;20024;-69
2023/08/20 05:57:59;;;;;;;8.52;5.15;;;;;;;18.71;100.00;96533.88;5105585;28;20022;-69
2023/08/20 06:00:24;;;;;;;12.05;5.38;;;;;;;18.69;100.00;96533.22;5093650;28;20031;-70
2023/08/20 06:02:50;;;;;;;9.93;5.40;;;;;;;18.67;100.00;96536.03;5094010;28;20027;-70
2023/08/20 06:05:15;;;;;;;10.57;5.20;;;;;;;18.60;100.00;96535.06;5094055;28;20032;-70
2023/08/20 06:07:41;;;;;;;6.88;4.97;;;;;;;18.55;100.00;96548.91;5101024;28;20019;-70
2023/08/20 06:10:07;;;;;;;11.35;5.10;;;;;;;18.55;100.00;96553.41;5096471;28;20097;-70
2023/08/20 06:12:33;;;;;;;12.07;5.68;;;;;;;18.59;100.00;96549.41;5105736;28;20031;-70
2023/08/20 06:14:59;;;;;;;9.75;5.25;;;;;;;18.59;100.00;96547.56;5092889;28;20032;-70
2023/08/20 06:17:24;;;;;;;12.75;5.07;;;;;;;18.69;100.00;96558.03;5104926;28;20472;-70
2023/08/20 06:19:52;;;;;;;8.65;5.40;;;;;;;18.90;100.00;96554.78;5092808;28;20062;-70
2023/08/20 06:22:18;;;;;;;10.43;5.47;;;;;;;19.08;100.00;96551.06;5093847;28;20016;-70
2023/08/20 06:24:43;;;;;;;11.95;5.13;;;;;;;19.23;100.00;96544.97;5086552;28;20208;-70
2023/08/20 06:27:09;;;;;;;10.30;4.72;;;;;;;19.37;100.00;96546.91;5110884;28;20012;-69
2023/08/20 06:29:34;;;;;;;8.05;4.95;;;;;;;19.65;100.00;96542.84;5093635;28;20048;-69
2023/08/20 06:31:59;;;;;;;7.60;4.70;;;;;;;19.90;100.00;96522.97;5094389;28;20032;-69
2023/08/20 06:34:25;;;;;;;9.50;5.38;;;;;;;20.15;100.00;96512.09;5119247;28;20027;-69
2023/08/20 06:36:50;;;;;;;11.20;5.50;;;;;;;20.33;100.00;96508.19;5095995;28;20468;-69
2023/08/20 06:39:16;;;;;;;14.27;5.43;;;;;;;20.49;100.00;96512.56;5097491;28;20059;-70
2023/08/20 06:41:41;;;;;;;13.35;5.43;;;;;;;20.58;100.00;96502.59;5095754;28;20067;-69
2023/08/20 06:44:07;;;;;;;8.65;4.93;;;;;;;20.66;100.00;96510.50;5112783;28;20032;-70
2023/08/20 06:46:32;;;;;;;11.60;5.40;;;;;;;20.83;100.00;96515.69;5098206;28;20020;-69
2023/08/20 06:48:58;;;;;;;9.32;5.07;;;;;;;21.01;100.00;96497.41;5102604;28;20027;-69
2023/08/20 06:51:25;;;;;;;13.40;5.38;;;;;;;21.20;100.00;96483.59;5098831;28;20028;-70
2023/08/20 06:53:50;;;;;;;10.48;4.53;;;;;;;21.42;100.00;96505.84;5099985;28;20035;-69
2023/08/20 06:56:16;;;;;;;14.32;5.53;;;;;;;21.69;100.00;96506.16;5093350;28;20492;-70
2023/08/20 06:58:42;;;;;;;11.65;4.78;;;;;;;21.96;100.00;96490.28;5093356;28;20030;-70
2023/08/20 07:01:08;;;;;;;12.18;4.72;;;;;;;22.24;100.00;96495.63;5093452;28;20035;-69
2023/08/20 07:03:37;;;;;;;9.18;4.72;;;;;;;22.53;100.00;96472.31;5093302;28;20152;-69
2023/08/20 07:06:03;;;;;;;13.35;5.22;;;;;;;22.82;100.00;96464.19;5091913;28;20036;-69
2023/08/20 07:08:28;;;;;;;15.65;4.45;;;;;;;23.11;100.00;96438.88;5097684;28;20039;-69
2023/08/20 07:10:54;;;;;;;12.05;4.53;;;;;;;23.51;100.00;96435.44;5103065;28;20087;-69
2023/08/20 07:13:19;;;;;;;7.75;4.65;;;;;;;23.95;100.00;96425.06;5102127;28;20128;-69
2023/08/20 07:15:45;;;;;;;12.75;4.88;;;;;;;24.34;100.00;96422.53;5099072;28;20016;-69
2023/08/20 07:18:13;;;;;;;14.40;4.63;;;;;;;24.68;100.00;96425.91;5107153;28;20035;-69
2023/08/20 07:20:39;;;;;;;8.50;4.63;;;;;;;24.98;100.00;96421.88;5097010;28;20024;-69
2023/08/20 07:23:04;;;;;;;5.32;4.50;;;;;;;24.97;100.00;96415.66;5105813;28;20088;-69
2023/08/20 07:25:30;;;;;;;9.93;5.10;;;;;;;25.14;100.00;96423.22;5100507;28;20031;-70
2023/08/20 07:27:59;;;;;;;14.80;5.50;;;;;;;25.52;100.00;96416.13;5114465;27;20036;-69
2023/08/20 07:30:27;;;;;;;10.05;4.85;;;;;;;25.82;100.00;96418.19;5096425;28;20082;-70
2023/08/20 07:32:52;;;;;;;13.68;5.00;;;;;;;25.91;100.00;96410.63;5108309;27;20106;-70
2023/08/20 07:35:18;;;;;;;11.68;5.15;;;;;;;26.01;100.00;96419.03;5100817;27;20143;-69
2023/08/20 07:37:43;;;;;;;7.97;4.03;;;;;;;26.22;100.00;96417.00;5110847;28;20116;-69
2023/08/20 07:40:09;;;;;;;12.63;4.75;;;;;;;26.42;100.00;96424.88;5098755;28;20043;-69
2023/08/20 07:42:36;;;;;;;13.18;4.28;;;;;;;26.73;100.00;96421.16;5096844;28;20079;-69
2023/08/20 07:45:02;;;;;;;10.52;4.55;;;;;;;26.97;100.00;96417.78;5108441;28;20030;-68
2023/08/20 07:47:28;;;;;;;10.95;5.07;;;;;;;27.33;100.00;96420.59;5115168;28;20031;-69
2023/08/20 07:49:54;;;;;;;11.48;4.57;;;;;;;27.55;100.00;96416.31;5102264;27;20024;-69
2023/08/20 07:52:19;;;;;;;10.45;4.85;;;;;;;27.82;100.00;96417.75;5108900;28;20027;-69
2023/08/20 07:54:45;;;;;;;12.00;4.53;;;;;;;28.00;100.00;96419.53;5108008;28;20028;-69
2023/08/20 07:57:10;;;;;;;11.00;4.22;;;;;;;27.87;100.00;96426.81;5096032;28;20028;-69
2023/08/20 07:59:36;;;;;;;10.02;4.68;;;;;;;28.31;100.00;96415.63;5096372;28;20028;-68
2023/08/20 08:02:01;;;;;;;14.85;4.75;;;;;;;28.36;100.00;96424.94;5111000;28;20479;-69
2023/08/20 08:04:27;;;;;;;10.43;4.18;;;;;;;28.34;100.00;96418.94;5107168;28;20590;-69
2023/08/20 08:06:52;;;;;;;9.70;4.38;;;;;;;28.37;100.00;96418.44;5112314;28;20020;-69
2023/08/20 08:09:20;;;;;;;8.30;3.80;;;;;;;28.73;100.00;96416.50;5095999;28;20020;-69
2023/08/20 08:11:46;;;;;;;13.57;4.90;;;;;;;29.20;100.00;96420.09;5095972;28;20027;-68
2023/08/20 08:14:11;;;;;;;10.65;4.50;;;;;;;29.10;100.00;96421.56;5096052;28;20034;-69
2023/08/20 08:16:37;;;;;;;13.63;4.40;;;;;;;29.13;100.00;96418.38;5105243;28;20031;-70
2023/08/20 08:19:02;;;;;;;9.60;4.10;;;;;;;29.00;100.00;96421.34;5098406;28;20047;-69
2023/08/20 08:21:28;;;;;;;11.60;4.35;;;;;;;29.34;100.00;96413.31;5103796;28;20020;-69
2023/08/20 08:23:53;;;;;;;13.73;5.07;;;;;;;29.65;100.00;96418.44;5095537;28;20547;-69
2023/08/20 08:26:19;;;;;;;11.07;4.90;;;;;;;29.66;100.00;96414.66;5105000;27;20031;-69
2023/08/20 08:28:44;;;;;;;10.95;4.32;;;;;;;29.90;100.00;96419.91;5101106;27;20413;-69
2023/08/20 08:31:09;;;;;;;13.18;4.90;;;;;;;29.76;100.00;96414.81;5095500;28;20652;-69
2023/08/20 08:33:35;;;;;;;11.13;4.63;;;;;;;29.85;100.00;96412.50;5114953;27;20012;-69
2023/08/20 08:36:00;;;;;;;9.55;3.85;;;;;;;29.79;100.00;96413.50;5109648;28;20027;-69
2023/08/20 08:38:26;;;;;;;7.35;4.10;;;;;;;29.89;100.00;96413.66;5097682;28;20062;-69
2023/08/20 08:40:52;;;;;;;7.43;4.00;;;;;;;30.13;100.00;96414.31;5104897;28;20102;-70
2023/08/20 08:43:19;;;;;;;10.48;4.15;;;;;;;30.52;100.00;96413.47;5098052;28;20034;-69
2023/08/20 08:45:50;;;;;;;8.98;4.47;;;;;;;30.42;100.00;96416.06;5095500;28;20088;-69
2023/08/20 08:48:15;;;;;;;9.55;5.10;;;;;;;30.30;100.00;96414.28;5095038;28;20079;-70
2023/08/20 08:50:41;;;;;;;10.20;4.18;;;;;;;30.58;100.00;96417.88;5100806;27;20555;-70
2023/08/20 08:53:08;;;;;;;11.80;4.57;;;;;;;30.61;100.00;96416.59;5104949;28;20031;-69
2023/08/20 08:55:33;;;;;;;12.32;4.18;;;;;;;30.53;100.00;96417.03;5094647;28;20499;-69
2023/08/20 08:57:58;;;;;;;14.15;4.85;;;;;;;30.60;100.00;96412.22;5095052;28;20035;-69
2023/08/20 09:00:24;;;;;;;13.82;5.20;;;;;;;31.11;100.00;96409.28;5093550;28;20038;-69
2023/08/20 09:02:49;;;;;;;7.53;3.95;;;;;;;31.25;100.00;96406.16;5095024;28;20521;-70
2023/08/20 09:05:15;;;;;;;13.48;4.03;;;;;;;31.42;100.00;96397.91;5093802;28;20028;-69
2023/08/20 09:07:47;;;;;;;7.78;4.22;;;;;;;31.32;100.00;96400.50;5103333;28;20380;-69
2023/08/20 09:10:12;;;;;;;9.15;4.20;;;;;;;31.43;100.00;96402.25;5099448;28;20020;-69
2023/08/20 09:12:39;;;;;;;15.70;4.53;;;;;;;31.02;100.00;96405.34;5093377;28;20667;-69
2023/08/20 09:15:10;;;;;;;10.30;4.22;;;;;;;31.23;100.00;96400.16;5094433;28;20055;-69
2023/08/20 09:17:36;;;;;;;12.23;3.90;;;;;;;31.51;100.00;96399.06;5106653;28;20093;-69
2023/08/20 09:20:01;;;;;;;11.43;4.45;;;;;;;31.53;100.00;96398.81;5094497;28;20024;-69
2023/08/20 09:22:26;;;;;;;12.50;4.22;;;;;;;31.72;100.00;96397.31;5094413;28;20028;-69
2023/08/20 09:24:56;;;;;;;7.25;4.03;;;;;;;31.65;100.00;96399.44;5094687;28;20016;-69
2023/08/20 09:27:22;;;;;;;9.52;3.60;;;;;;;31.50;100.00;96394.69;5109964;27;20031;-69
2023/08/20 09:29:48;;;;;;;14.43;4.68;;;;;;;31.75;100.00;96397.88;5094347;28;20048;-69
2023/08/20 09:32:18;;;;;;;10.15;4.00;;;;;;;32.12;100.00;96391.59;5094993;28;20055;-69
2023/08/20 09:34:44;;;;;;;12.68;4.22;;;;;;;32.34;100.00;96385.19;5103415;27;20024;-69
2023/08/20 09:37:12;;;;;;;15.07;4.28;;;;;;;32.40;100.00;96381.44;5098744;28;20647;-69
2023/08/20 09:39:37;;;;;;;12.70;4.05;;;;;;;32.30;100.00;96384.91;5114141;28;20093;-69
2023/08/20 09:42:05;;;;;;;8.95;4.47;;;;;;;32.26;100.00;96384.59;5107595;28;20106;-69
2023/08/20 09:44:35;;;;;;;7.28;3.67;;;;;;;32.32;100.00;96381.91;5094208;28;20024;-69
2023/08/20 09:47:12;;;;;;;10.05;3.83;;;;;;;32.50;100.00;96381.47;5106641;28;20023;-69
2023/08/20 09:49:56;;;;;;;8.13;3.90;;;;;;;32.74;100.00;96375.56;5111204;28;20039;-69
2023/08/20 09:52:31;;;;;;;14.70;4.30;;;;;;;32.90;100.00;96379.16;5104211;28;20439;-69
2023/08/20 09:55:08;;;;;;;12.50;4.68;;;;;;;32.89;100.00;96376.72;5094065;28;20038;-69
2023/08/20 09:57:36;;;;;;;14.57;4.25;;;;;;;33.24;100.00;96377.84;5094007;28;20024;-69
2023/08/20 10:00:05;;;;;;;6.80;3.33;;;;;;;33.13;100.00;96377.84;5093793;28;20036;-69
2023/08/20 10:02:31;;;;;;;9.45;3.83;;;;;;;33.37;100.00;96377.31;5098850;28;20027;-69
2023/08/20 10:05:01;;;;;;;9.57;3.92;;;;;;;33.01;100.00;96380.00;5101806;28;20036;-69
2023/08/20 10:07:31;;;;;;;14.70;3.90;;;;;;;32.86;100.00;96376.13;5092769;28;20012;-68
2023/08/20 10:10:00;;;;;;;8.63;3.85;;;;;;;32.83;100.00;96379.41;5093926;28;20039;-69
2023/08/20 10:12:28;;;;;;;11.10;3.72;;;;;;;33.29;100.00;96380.59;5094308;28;20028;-68
2023/08/20 10:14:58;;;;;;;12.25;3.60;;;;;;;33.24;100.00;96377.84;5106676;28;20029;-68
2023/08/20 10:17:24;;;;;;;7.57;3.83;;;;;;;33.11;100.00;96373.75;5102341;28;20024;-68
2023/08/20 10:19:53;;;;;;;11.23;4.00;;;;;;;33.32;100.00;96374.59;5093712;28;20109;-68
2023/08/20 10:22:19;;;;;;;12.98;4.20;;;;;;;33.23;100.00;96368.88;5092427;28;20047;-68
2023/08/20 10:24:50;;;;;;;32.65;5.07;;;;;;;33.49;100.00;96373.53;5093487;28;20074;-68
2023/08/20 10:27:26;;;;;;;54.92;5.80;;;;;;;33.62;100.00;96364.00;5109473;28;20431;-68
2023/08/20 10:29:53;;;;;;;37.00;5.28;;;;;;;33.76;100.00;96364.25;5093906;28;20051;-68
2023/08/20 10:32:19;;;;;;;37.55;5.55;;;;;;;33.98;100.00;96359.31;5101112;28;20049;-68
2023/08/20 10:34:53;;;;;;;13.02;3.88;;;;;;;34.23;100.00;96363.06;5104830;28;20431;-68
2023/08/20 10:37:28;;;;;;;8.75;3.58;;;;;;;34.12;100.00;96353.25;5099977;28;20023;-68
2023/08/20 10:39:57;;;;;;;10.75;4.00;;;;;;;34.32;100.00;96357.84;5104610;28;20026;-68
2023/08/20 10:42:27;;;;;;;9.43;4.00;;;;;;;34.42;100.00;96357.00;5102449;28;20012;-68
2023/08/20 10:44:59;;;;;;;10.38;3.95;;;;;;;34.24;100.00;96361.97;5097918;28;20027;-68
2023/08/20 10:47:25;;;;;;;67.50;7.63;;;;;;;34.26;100.00;96353.47;5102980;28;20058;-68
2023/08/20 10:49:54;;;;;;;33.65;5.38;;;;;;;34.52;100.00;96351.50;5100658;27;20027;-68
2023/08/20 10:52:22;;;;;;;40.60;5.78;;;;;;;34.99;100.00;96353.97;5097510;28;20141;-68
2023/08/20 10:54:51;;;;;;;83.05;9.90;;;;;;;34.66;100.00;96350.88;5105531;28;20027;-68
2023/08/20 10:57:16;;;;;;;82.03;8.57;;;;;;;34.73;100.00;96350.59;5103363;28;20031;-68
2023/08/20 10:59:42;;;;;;;13.20;4.40;;;;;;;34.88;100.00;96345.00;5108369;28;20024;-68
2023/08/20 11:02:15;;;;;;;13.25;4.10;;;;;;;34.81;100.00;96339.84;5115319;28;20023;-68
2023/08/20 11:04:41;;;;;;;142.82;9.85;;;;;;;34.97;100.00;96346.06;5095986;28;20046;-68
2023/08/20 11:07:06;;;;;;;13.30;4.22;;;;;;;35.03;100.00;96343.31;5108813;28;20067;-68
2023/08/20 11:09:31;;;;;;;11.05;3.65;;;;;;;35.16;100.00;96337.22;5105739;28;20572;-68
2023/08/20 11:11:58;;;;;;;12.93;3.80;;;;;;;35.53;100.00;96324.06;5113871;28;20026;-68
2023/08/20 11:14:24;;;;;;;9.35;3.88;;;;;;;36.03;100.00;96331.25;5104017;28;20036;-68
2023/08/20 11:16:50;;;;;;;10.18;4.47;;;;;;;36.19;100.00;96329.16;5108438;28;20028;-68
2023/08/20 11:19:23;;;;;;;12.55;4.40;;;;;;;36.28;100.00;96320.00;5098133;28;20024;-68